sensor_id;sensor_type;location;lat;lon;timestamp;P1;durP1;ratioP1;P2;durP2;ratioP2
76826;SDS011;65788;52.284;20.890;2023-08-07T00:01:35;0.50;;;0.50;;
76826;SDS011;65788;52.284;20.890;2023-08-07T00:04:01;1.80;;;0.50;;
76826;SDS011;65788;52.284;20.890;2023-08-07T00:06:28;1.30;;;0.70;;
76826;SDS011;65788;52.284;20.890;2023-08-07T00:08:55;1.90;;;0.80;;
76826;SDS011;65788;52.284;20.890;2023-08-07T00:11:22;1.20;;;0.60;;
76826;SDS011;65788;52.284;20.890;2023-08-07T00:13:51;1.80;;;0.50;;
76826;SDS011;65788;52.284;20.890;2023-08-07T00:16:17;0.70;;;0.40;;
76826;SDS011;65788;52.284;20.890;2023-08-07T00:18:44;0.80;;;0.60;;
76826;SDS011;65788;52.284;20.890;2023-08-07T00:21:11;0.90;;;0.40;;
76826;SDS011;65788;52.284;20.890;2023-08-07T00:23:38;0.30;;;0.30;;
76826;SDS011;65788;52.284;20.890;2023-08-07T00:26:05;0.60;;;0.40;;
76826;SDS011;65788;52.284;20.890;2023-08-07T00:28:31;0.20;;;0.20;;
76826;SDS011;65788;52.284;20.890;2023-08-07T00:30:58;1.80;;;0.40;;
76826;SDS011;65788;52.284;20.890;2023-08-07T00:33:24;0.60;;;0.40;;
76826;SDS011;65788;52.284;20.890;2023-08-07T00:35:52;0.60;;;0.30;;
76826;SDS011;65788;52.284;20.890;2023-08-07T00:38:19;0.90;;;0.40;;
76826;SDS011;65788;52.284;20.890;2023-08-07T00:40:45;0.40;;;0.40;;
76826;SDS011;65788;52.284;20.890;2023-08-07T00:43:13;0.70;;;0.40;;
76826;SDS011;65788;52.284;20.890;2023-08-07T00:45:43;0.40;;;0.30;;
76826;SDS011;65788;52.284;20.890;2023-08-07T00:48:12;1.30;;;0.40;;
76826;SDS011;65788;52.284;20.890;2023-08-07T00:53:08;1.10;;;0.40;;
76826;SDS011;65788;52.284;20.890;2023-08-07T00:55:35;1.00;;;0.50;;
76826;SDS011;65788;52.284;20.890;2023-08-07T00:58:02;0.60;;;0.30;;
76826;SDS011;65788;52.284;20.890;2023-08-07T01:00:32;0.50;;;0.40;;
76826;SDS011;65788;52.284;20.890;2023-08-07T01:02:59;0.70;;;0.30;;
76826;SDS011;65788;52.284;20.890;2023-08-07T01:05:26;0.40;;;0.30;;
76826;SDS011;65788;52.284;20.890;2023-08-07T01:07:54;0.50;;;0.30;;
76826;SDS011;65788;52.284;20.890;2023-08-07T01:13:16;0.60;;;0.30;;
76826;SDS011;65788;52.284;20.890;2023-08-07T01:15:48;1.40;;;0.40;;
76826;SDS011;65788;52.284;20.890;2023-08-07T01:18:18;1.10;;;0.50;;
76826;SDS011;65788;52.284;20.890;2023-08-07T01:20:47;1.70;;;0.70;;
76826;SDS011;65788;52.284;20.890;2023-08-07T01:23:14;0.40;;;0.30;;
76826;SDS011;65788;52.284;20.890;2023-08-07T01:25:41;0.20;;;0.20;;
76826;SDS011;65788;52.284;20.890;2023-08-07T01:28:11;0.50;;;0.40;;
76826;SDS011;65788;52.284;20.890;2023-08-07T01:30:55;0.80;;;0.60;;
76826;SDS011;65788;52.284;20.890;2023-08-07T01:33:31;0.90;;;0.40;;
76826;SDS011;65788;52.284;20.890;2023-08-07T01:36:02;0.30;;;0.30;;
76826;SDS011;65788;52.284;20.890;2023-08-07T01:38:33;1.80;;;0.50;;
76826;SDS011;65788;52.284;20.890;2023-08-07T01:43:29;0.70;;;0.60;;
76826;SDS011;65788;52.284;20.890;2023-08-07T01:45:58;1.00;;;0.50;;
76826;SDS011;65788;52.284;20.890;2023-08-07T01:48:26;1.00;;;0.40;;
76826;SDS011;65788;52.284;20.890;2023-08-07T01:50:53;1.10;;;0.50;;
76826;SDS011;65788;52.284;20.890;2023-08-07T01:53:21;0.60;;;0.40;;
76826;SDS011;65788;52.284;20.890;2023-08-07T01:55:48;0.70;;;0.40;;
76826;SDS011;65788;52.284;20.890;2023-08-07T01:58:14;0.60;;;0.40;;
76826;SDS011;65788;52.284;20.890;2023-08-07T02:00:41;0.80;;;0.40;;
76826;SDS011;65788;52.284;20.890;2023-08-07T02:03:08;1.00;;;0.60;;
76826;SDS011;65788;52.284;20.890;2023-08-07T02:05:35;1.00;;;0.70;;
76826;SDS011;65788;52.284;20.890;2023-08-07T02:08:02;0.70;;;0.60;;
76826;SDS011;65788;52.284;20.890;2023-08-07T02:10:30;0.80;;;0.60;;
76826;SDS011;65788;52.284;20.890;2023-08-07T02:12:57;0.50;;;0.50;;
76826;SDS011;65788;52.284;20.890;2023-08-07T02:17:52;1.20;;;0.60;;
76826;SDS011;65788;52.284;20.890;2023-08-07T02:20:19;3.10;;;0.80;;
76826;SDS011;65788;52.284;20.890;2023-08-07T02:22:45;0.40;;;0.40;;
76826;SDS011;65788;52.284;20.890;2023-08-07T02:25:12;1.00;;;0.60;;
76826;SDS011;65788;52.284;20.890;2023-08-07T02:27:39;0.70;;;0.50;;
76826;SDS011;65788;52.284;20.890;2023-08-07T02:30:07;1.40;;;0.90;;
76826;SDS011;65788;52.284;20.890;2023-08-07T02:32:34;1.20;;;0.60;;
76826;SDS011;65788;52.284;20.890;2023-08-07T02:35:01;3.50;;;0.60;;
76826;SDS011;65788;52.284;20.890;2023-08-07T02:37:28;0.80;;;0.50;;
76826;SDS011;65788;52.284;20.890;2023-08-07T02:39:55;0.40;;;0.30;;
76826;SDS011;65788;52.284;20.890;2023-08-07T02:42:24;0.90;;;0.70;;
76826;SDS011;65788;52.284;20.890;2023-08-07T02:44:51;1.70;;;0.80;;
76826;SDS011;65788;52.284;20.890;2023-08-07T02:47:17;2.00;;;0.80;;
76826;SDS011;65788;52.284;20.890;2023-08-07T02:49:46;1.00;;;0.60;;
76826;SDS011;65788;52.284;20.890;2023-08-07T02:52:12;1.40;;;0.70;;
76826;SDS011;65788;52.284;20.890;2023-08-07T02:54:39;0.90;;;0.50;;
76826;SDS011;65788;52.284;20.890;2023-08-07T02:57:06;1.20;;;0.60;;
76826;SDS011;65788;52.284;20.890;2023-08-07T02:59:36;0.70;;;0.40;;
76826;SDS011;65788;52.284;20.890;2023-08-07T03:02:03;1.60;;;0.60;;
76826;SDS011;65788;52.284;20.890;2023-08-07T03:04:30;1.70;;;0.60;;
76826;SDS011;65788;52.284;20.890;2023-08-07T03:06:57;1.30;;;0.60;;
76826;SDS011;65788;52.284;20.890;2023-08-07T03:09:24;1.00;;;0.50;;
76826;SDS011;65788;52.284;20.890;2023-08-07T03:11:50;1.10;;;0.60;;
76826;SDS011;65788;52.284;20.890;2023-08-07T03:14:17;1.20;;;0.70;;
76826;SDS011;65788;52.284;20.890;2023-08-07T03:16:44;1.00;;;0.50;;
76826;SDS011;65788;52.284;20.890;2023-08-07T03:19:12;1.70;;;0.60;;
76826;SDS011;65788;52.284;20.890;2023-08-07T03:21:40;0.80;;;0.60;;
76826;SDS011;65788;52.284;20.890;2023-08-07T03:24:06;3.00;;;0.90;;
76826;SDS011;65788;52.284;20.890;2023-08-07T03:26:34;0.50;;;0.40;;
76826;SDS011;65788;52.284;20.890;2023-08-07T03:29:04;0.70;;;0.50;;
76826;SDS011;65788;52.284;20.890;2023-08-07T03:31:31;0.70;;;0.60;;
76826;SDS011;65788;52.284;20.890;2023-08-07T03:33:57;2.00;;;0.60;;
76826;SDS011;65788;52.284;20.890;2023-08-07T03:36:26;0.70;;;0.40;;
76826;SDS011;65788;52.284;20.890;2023-08-07T03:38:52;1.50;;;0.50;;
76826;SDS011;65788;52.284;20.890;2023-08-07T03:41:19;1.60;;;0.70;;
76826;SDS011;65788;52.284;20.890;2023-08-07T03:43:46;1.40;;;0.70;;
76826;SDS011;65788;52.284;20.890;2023-08-07T03:46:13;1.10;;;0.60;;
76826;SDS011;65788;52.284;20.890;2023-08-07T03:48:40;1.20;;;0.70;;
76826;SDS011;65788;52.284;20.890;2023-08-07T03:51:07;1.10;;;0.60;;
76826;SDS011;65788;52.284;20.890;2023-08-07T03:53:34;1.20;;;0.60;;
76826;SDS011;65788;52.284;20.890;2023-08-07T03:56:01;1.00;;;0.70;;
76826;SDS011;65788;52.284;20.890;2023-08-07T03:58:28;1.90;;;0.70;;
76826;SDS011;65788;52.284;20.890;2023-08-07T04:00:55;2.00;;;0.90;;
76826;SDS011;65788;52.284;20.890;2023-08-07T04:03:22;1.10;;;0.70;;
76826;SDS011;65788;52.284;20.890;2023-08-07T04:05:54;2.20;;;0.90;;
76826;SDS011;65788;52.284;20.890;2023-08-07T04:08:22;1.30;;;0.80;;
76826;SDS011;65788;52.284;20.890;2023-08-07T04:13:29;1.90;;;0.80;;
76826;SDS011;65788;52.284;20.890;2023-08-07T04:15:56;0.60;;;0.60;;
76826;SDS011;65788;52.284;20.890;2023-08-07T04:18:25;1.30;;;0.70;;
76826;SDS011;65788;52.284;20.890;2023-08-07T04:20:55;1.90;;;0.70;;
76826;SDS011;65788;52.284;20.890;2023-08-07T04:23:23;1.90;;;0.60;;
76826;SDS011;65788;52.284;20.890;2023-08-07T04:25:51;1.30;;;0.70;;
76826;SDS011;65788;52.284;20.890;2023-08-07T04:28:19;1.00;;;0.60;;
76826;SDS011;65788;52.284;20.890;2023-08-07T04:30:48;1.10;;;0.60;;
76826;SDS011;65788;52.284;20.890;2023-08-07T04:33:17;0.80;;;0.60;;
76826;SDS011;65788;52.284;20.890;2023-08-07T04:35:48;1.00;;;0.70;;
76826;SDS011;65788;52.284;20.890;2023-08-07T04:38:16;1.40;;;1.00;;
76826;SDS011;65788;52.284;20.890;2023-08-07T04:40:45;0.80;;;0.70;;
76826;SDS011;65788;52.284;20.890;2023-08-07T04:43:18;1.30;;;0.90;;
76826;SDS011;65788;52.284;20.890;2023-08-07T04:45:47;1.90;;;0.80;;
76826;SDS011;65788;52.284;20.890;2023-08-07T04:48:14;1.20;;;0.90;;
76826;SDS011;65788;52.284;20.890;2023-08-07T04:50:42;1.50;;;0.80;;
76826;SDS011;65788;52.284;20.890;2023-08-07T04:53:13;1.60;;;0.70;;
76826;SDS011;65788;52.284;20.890;2023-08-07T04:55:40;1.60;;;0.90;;
76826;SDS011;65788;52.284;20.890;2023-08-07T04:58:06;1.80;;;1.10;;
76826;SDS011;65788;52.284;20.890;2023-08-07T05:00:34;1.40;;;0.80;;
76826;SDS011;65788;52.284;20.890;2023-08-07T05:03:00;1.80;;;0.90;;
76826;SDS011;65788;52.284;20.890;2023-08-07T05:05:28;1.30;;;0.80;;
76826;SDS011;65788;52.284;20.890;2023-08-07T05:07:55;1.20;;;0.70;;
76826;SDS011;65788;52.284;20.890;2023-08-07T05:10:22;1.90;;;0.80;;
76826;SDS011;65788;52.284;20.890;2023-08-07T05:12:48;1.80;;;0.80;;
76826;SDS011;65788;52.284;20.890;2023-08-07T05:15:24;1.20;;;0.80;;
76826;SDS011;65788;52.284;20.890;2023-08-07T05:17:52;1.90;;;0.90;;
76826;SDS011;65788;52.284;20.890;2023-08-07T05:20:21;1.00;;;0.70;;
76826;SDS011;65788;52.284;20.890;2023-08-07T05:22:48;1.30;;;0.70;;
76826;SDS011;65788;52.284;20.890;2023-08-07T05:25:16;5.90;;;1.00;;
76826;SDS011;65788;52.284;20.890;2023-08-07T05:27:44;2.60;;;0.80;;
76826;SDS011;65788;52.284;20.890;2023-08-07T05:30:12;4.30;;;1.00;;
76826;SDS011;65788;52.284;20.890;2023-08-07T05:32:39;2.40;;;0.90;;
76826;SDS011;65788;52.284;20.890;2023-08-07T05:35:06;3.90;;;0.90;;
76826;SDS011;65788;52.284;20.890;2023-08-07T05:37:34;3.60;;;1.10;;
76826;SDS011;65788;52.284;20.890;2023-08-07T05:40:02;2.30;;;0.80;;
76826;SDS011;65788;52.284;20.890;2023-08-07T05:42:29;1.30;;;0.90;;
76826;SDS011;65788;52.284;20.890;2023-08-07T05:44:56;2.50;;;0.90;;
76826;SDS011;65788;52.284;20.890;2023-08-07T05:47:24;2.10;;;0.80;;
76826;SDS011;65788;52.284;20.890;2023-08-07T05:49:51;2.80;;;0.90;;
76826;SDS011;65788;52.284;20.890;2023-08-07T05:52:18;1.00;;;0.70;;
76826;SDS011;65788;52.284;20.890;2023-08-07T05:54:44;1.90;;;0.90;;
76826;SDS011;65788;52.284;20.890;2023-08-07T05:57:11;1.70;;;0.90;;
76826;SDS011;65788;52.284;20.890;2023-08-07T05:59:39;2.20;;;0.80;;
76826;SDS011;65788;52.284;20.890;2023-08-07T06:02:09;1.30;;;0.80;;
76826;SDS011;65788;52.284;20.890;2023-08-07T06:04:39;2.50;;;1.00;;
76826;SDS011;65788;52.284;20.890;2023-08-07T06:07:07;3.40;;;0.90;;
76826;SDS011;65788;52.284;20.890;2023-08-07T06:09:34;1.60;;;1.10;;
76826;SDS011;65788;52.284;20.890;2023-08-07T06:12:01;1.60;;;1.00;;
76826;SDS011;65788;52.284;20.890;2023-08-07T06:14:29;1.50;;;0.90;;
76826;SDS011;65788;52.284;20.890;2023-08-07T06:16:56;1.80;;;0.90;;
76826;SDS011;65788;52.284;20.890;2023-08-07T06:19:24;1.90;;;0.90;;
76826;SDS011;65788;52.284;20.890;2023-08-07T06:21:53;1.80;;;0.90;;
76826;SDS011;65788;52.284;20.890;2023-08-07T06:24:20;4.00;;;1.80;;
76826;SDS011;65788;52.284;20.890;2023-08-07T06:26:47;2.20;;;1.10;;
76826;SDS011;65788;52.284;20.890;2023-08-07T06:29:14;1.40;;;0.80;;
76826;SDS011;65788;52.284;20.890;2023-08-07T06:31:40;1.80;;;1.00;;
76826;SDS011;65788;52.284;20.890;2023-08-07T06:34:07;2.00;;;0.80;;
76826;SDS011;65788;52.284;20.890;2023-08-07T06:36:37;2.00;;;0.80;;
76826;SDS011;65788;52.284;20.890;2023-08-07T06:39:03;1.50;;;1.10;;
76826;SDS011;65788;52.284;20.890;2023-08-07T06:41:30;2.20;;;1.10;;
76826;SDS011;65788;52.284;20.890;2023-08-07T06:43:57;1.90;;;1.00;;
76826;SDS011;65788;52.284;20.890;2023-08-07T06:46:24;2.50;;;1.10;;
76826;SDS011;65788;52.284;20.890;2023-08-07T06:48:54;1.30;;;0.90;;
76826;SDS011;65788;52.284;20.890;2023-08-07T06:51:21;3.90;;;1.10;;
76826;SDS011;65788;52.284;20.890;2023-08-07T06:53:47;1.50;;;1.00;;
76826;SDS011;65788;52.284;20.890;2023-08-07T06:56:14;2.70;;;1.30;;
76826;SDS011;65788;52.284;20.890;2023-08-07T06:58:41;2.40;;;1.20;;
76826;SDS011;65788;52.284;20.890;2023-08-07T07:01:08;2.90;;;1.20;;
76826;SDS011;65788;52.284;20.890;2023-08-07T07:03:35;2.70;;;1.50;;
76826;SDS011;65788;52.284;20.890;2023-08-07T07:06:02;4.00;;;1.10;;
76826;SDS011;65788;52.284;20.890;2023-08-07T07:08:28;2.20;;;1.30;;
76826;SDS011;65788;52.284;20.890;2023-08-07T07:10:56;3.60;;;1.30;;
76826;SDS011;65788;52.284;20.890;2023-08-07T07:13:25;2.50;;;1.20;;
76826;SDS011;65788;52.284;20.890;2023-08-07T07:15:55;1.80;;;1.10;;
76826;SDS011;65788;52.284;20.890;2023-08-07T07:18:21;4.50;;;1.50;;
76826;SDS011;65788;52.284;20.890;2023-08-07T07:20:55;2.50;;;1.30;;
76826;SDS011;65788;52.284;20.890;2023-08-07T07:23:24;7.00;;;1.40;;
76826;SDS011;65788;52.284;20.890;2023-08-07T07:25:51;2.90;;;1.40;;
76826;SDS011;65788;52.284;20.890;2023-08-07T07:28:20;3.70;;;1.60;;
76826;SDS011;65788;52.284;20.890;2023-08-07T07:30:47;1.70;;;1.20;;
76826;SDS011;65788;52.284;20.890;2023-08-07T07:33:14;2.20;;;1.20;;
76826;SDS011;65788;52.284;20.890;2023-08-07T07:35:40;2.90;;;1.10;;
76826;SDS011;65788;52.284;20.890;2023-08-07T07:38:07;3.50;;;1.70;;
76826;SDS011;65788;52.284;20.890;2023-08-07T07:40:35;2.50;;;1.50;;
76826;SDS011;65788;52.284;20.890;2023-08-07T07:43:03;4.30;;;1.40;;
76826;SDS011;65788;52.284;20.890;2023-08-07T07:45:30;3.20;;;1.30;;
76826;SDS011;65788;52.284;20.890;2023-08-07T07:48:00;1.70;;;1.10;;
76826;SDS011;65788;52.284;20.890;2023-08-07T07:50:27;2.90;;;1.30;;
76826;SDS011;65788;52.284;20.890;2023-08-07T07:52:57;2.60;;;1.30;;
76826;SDS011;65788;52.284;20.890;2023-08-07T07:55:25;2.50;;;1.30;;
76826;SDS011;65788;52.284;20.890;2023-08-07T07:57:53;2.00;;;1.20;;
76826;SDS011;65788;52.284;20.890;2023-08-07T08:00:21;3.30;;;1.30;;
76826;SDS011;65788;52.284;20.890;2023-08-07T08:02:52;2.50;;;1.40;;
76826;SDS011;65788;52.284;20.890;2023-08-07T08:05:20;4.20;;;1.90;;
76826;SDS011;65788;52.284;20.890;2023-08-07T08:07:47;2.20;;;1.20;;
76826;SDS011;65788;52.284;20.890;2023-08-07T08:10:14;2.60;;;1.40;;
76826;SDS011;65788;52.284;20.890;2023-08-07T08:12:42;2.80;;;1.10;;
76826;SDS011;65788;52.284;20.890;2023-08-07T08:15:11;2.40;;;1.30;;
76826;SDS011;65788;52.284;20.890;2023-08-07T08:17:38;3.10;;;1.00;;
76826;SDS011;65788;52.284;20.890;2023-08-07T08:20:06;4.70;;;1.50;;
76826;SDS011;65788;52.284;20.890;2023-08-07T08:22:33;2.40;;;1.20;;
76826;SDS011;65788;52.284;20.890;2023-08-07T08:25:00;4.20;;;1.20;;
76826;SDS011;65788;52.284;20.890;2023-08-07T08:27:28;4.20;;;1.60;;
76826;SDS011;65788;52.284;20.890;2023-08-07T08:29:56;2.30;;;1.40;;
76826;SDS011;65788;52.284;20.890;2023-08-07T08:32:22;3.00;;;1.50;;
76826;SDS011;65788;52.284;20.890;2023-08-07T08:34:49;3.60;;;1.10;;
76826;SDS011;65788;52.284;20.890;2023-08-07T08:37:17;3.80;;;1.30;;
76826;SDS011;65788;52.284;20.890;2023-08-07T08:39:43;3.70;;;1.50;;
76826;SDS011;65788;52.284;20.890;2023-08-07T08:42:10;2.60;;;1.00;;
76826;SDS011;65788;52.284;20.890;2023-08-07T08:44:39;3.30;;;1.30;;
76826;SDS011;65788;52.284;20.890;2023-08-07T08:47:07;3.30;;;1.60;;
76826;SDS011;65788;52.284;20.890;2023-08-07T08:49:41;2.90;;;1.40;;
76826;SDS011;65788;52.284;20.890;2023-08-07T08:52:12;3.10;;;1.40;;
76826;SDS011;65788;52.284;20.890;2023-08-07T08:54:40;2.40;;;1.20;;
76826;SDS011;65788;52.284;20.890;2023-08-07T08:57:08;3.20;;;1.30;;
76826;SDS011;65788;52.284;20.890;2023-08-07T08:59:35;2.90;;;1.30;;
76826;SDS011;65788;52.284;20.890;2023-08-07T09:02:04;2.30;;;1.30;;
76826;SDS011;65788;52.284;20.890;2023-08-07T09:04:34;2.50;;;1.20;;
76826;SDS011;65788;52.284;20.890;2023-08-07T09:07:01;6.00;;;1.30;;
76826;SDS011;65788;52.284;20.890;2023-08-07T09:09:28;2.10;;;1.10;;
76826;SDS011;65788;52.284;20.890;2023-08-07T09:11:56;2.20;;;1.30;;
76826;SDS011;65788;52.284;20.890;2023-08-07T09:14:26;1.90;;;1.20;;
76826;SDS011;65788;52.284;20.890;2023-08-07T09:16:58;2.20;;;1.20;;
76826;SDS011;65788;52.284;20.890;2023-08-07T09:19:27;3.30;;;1.40;;
76826;SDS011;65788;52.284;20.890;2023-08-07T09:21:55;2.00;;;1.10;;
76826;SDS011;65788;52.284;20.890;2023-08-07T09:24:22;1.90;;;1.20;;
76826;SDS011;65788;52.284;20.890;2023-08-07T09:26:50;2.90;;;1.30;;
76826;SDS011;65788;52.284;20.890;2023-08-07T09:29:22;2.30;;;1.20;;
76826;SDS011;65788;52.284;20.890;2023-08-07T09:31:48;2.40;;;1.20;;
76826;SDS011;65788;52.284;20.890;2023-08-07T09:36:45;1.80;;;1.10;;
76826;SDS011;65788;52.284;20.890;2023-08-07T09:39:12;5.00;;;1.20;;
76826;SDS011;65788;52.284;20.890;2023-08-07T09:41:39;2.40;;;1.30;;
76826;SDS011;65788;52.284;20.890;2023-08-07T09:44:09;2.30;;;1.10;;
76826;SDS011;65788;52.284;20.890;2023-08-07T09:46:42;3.00;;;1.30;;
76826;SDS011;65788;52.284;20.890;2023-08-07T09:49:11;2.50;;;1.00;;
76826;SDS011;65788;52.284;20.890;2023-08-07T09:51:46;2.10;;;1.10;;
76826;SDS011;65788;52.284;20.890;2023-08-07T09:54:14;3.40;;;1.10;;
76826;SDS011;65788;52.284;20.890;2023-08-07T09:56:41;2.20;;;1.00;;
76826;SDS011;65788;52.284;20.890;2023-08-07T09:59:08;2.40;;;1.10;;
76826;SDS011;65788;52.284;20.890;2023-08-07T10:01:38;1.50;;;1.10;;
76826;SDS011;65788;52.284;20.890;2023-08-07T10:04:09;4.00;;;1.40;;
76826;SDS011;65788;52.284;20.890;2023-08-07T10:06:42;2.40;;;1.00;;
76826;SDS011;65788;52.284;20.890;2023-08-07T10:09:10;3.10;;;0.90;;
76826;SDS011;65788;52.284;20.890;2023-08-07T10:11:38;2.10;;;0.80;;
76826;SDS011;65788;52.284;20.890;2023-08-07T10:14:06;1.80;;;0.90;;
76826;SDS011;65788;52.284;20.890;2023-08-07T10:16:35;2.90;;;1.20;;
76826;SDS011;65788;52.284;20.890;2023-08-07T10:19:06;1.90;;;0.90;;
76826;SDS011;65788;52.284;20.890;2023-08-07T10:21:38;1.40;;;0.90;;
76826;SDS011;65788;52.284;20.890;2023-08-07T10:24:06;2.30;;;1.10;;
76826;SDS011;65788;52.284;20.890;2023-08-07T10:26:37;2.50;;;1.00;;
76826;SDS011;65788;52.284;20.890;2023-08-07T10:29:09;3.80;;;1.20;;
76826;SDS011;65788;52.284;20.890;2023-08-07T10:31:39;1.80;;;1.10;;
76826;SDS011;65788;52.284;20.890;2023-08-07T10:34:09;2.10;;;1.10;;
76826;SDS011;65788;52.284;20.890;2023-08-07T10:36:36;2.40;;;1.10;;
76826;SDS011;65788;52.284;20.890;2023-08-07T10:39:09;1.90;;;1.20;;
76826;SDS011;65788;52.284;20.890;2023-08-07T10:41:39;2.80;;;1.10;;
76826;SDS011;65788;52.284;20.890;2023-08-07T10:44:20;2.80;;;1.10;;
76826;SDS011;65788;52.284;20.890;2023-08-07T10:46:55;2.60;;;0.90;;
76826;SDS011;65788;52.284;20.890;2023-08-07T10:52:03;5.40;;;1.20;;
76826;SDS011;65788;52.284;20.890;2023-08-07T10:54:38;1.30;;;0.80;;
76826;SDS011;65788;52.284;20.890;2023-08-07T10:57:25;5.00;;;1.10;;
76826;SDS011;65788;52.284;20.890;2023-08-07T11:02:29;2.90;;;1.10;;
76826;SDS011;65788;52.284;20.890;2023-08-07T11:04:57;2.00;;;1.00;;
76826;SDS011;65788;52.284;20.890;2023-08-07T11:07:27;2.50;;;1.00;;
76826;SDS011;65788;52.284;20.890;2023-08-07T11:09:56;2.10;;;1.00;;
76826;SDS011;65788;52.284;20.890;2023-08-07T11:12:24;2.40;;;1.40;;
76826;SDS011;65788;52.284;20.890;2023-08-07T11:17:19;2.20;;;1.20;;
76826;SDS011;65788;52.284;20.890;2023-08-07T11:19:47;1.90;;;1.10;;
76826;SDS011;65788;52.284;20.890;2023-08-07T11:22:15;1.90;;;1.10;;
76826;SDS011;65788;52.284;20.890;2023-08-07T11:24:43;1.60;;;0.80;;
76826;SDS011;65788;52.284;20.890;2023-08-07T11:27:09;2.30;;;1.10;;
76826;SDS011;65788;52.284;20.890;2023-08-07T11:29:36;2.10;;;1.20;;
76826;SDS011;65788;52.284;20.890;2023-08-07T11:32:03;2.90;;;1.10;;
76826;SDS011;65788;52.284;20.890;2023-08-07T11:34:30;2.10;;;0.70;;
76826;SDS011;65788;52.284;20.890;2023-08-07T11:36:57;3.30;;;1.00;;
76826;SDS011;65788;52.284;20.890;2023-08-07T11:39:24;3.40;;;1.10;;
76826;SDS011;65788;52.284;20.890;2023-08-07T11:41:51;2.70;;;1.40;;
76826;SDS011;65788;52.284;20.890;2023-08-07T11:44:22;4.10;;;1.50;;
76826;SDS011;65788;52.284;20.890;2023-08-07T11:46:52;3.80;;;1.30;;
76826;SDS011;65788;52.284;20.890;2023-08-07T11:49:19;3.70;;;1.30;;
76826;SDS011;65788;52.284;20.890;2023-08-07T11:51:46;5.40;;;1.50;;
76826;SDS011;65788;52.284;20.890;2023-08-07T11:54:14;3.50;;;1.20;;
76826;SDS011;65788;52.284;20.890;2023-08-07T11:56:41;3.90;;;1.20;;
76826;SDS011;65788;52.284;20.890;2023-08-07T11:59:09;5.00;;;1.40;;
76826;SDS011;65788;52.284;20.890;2023-08-07T12:01:37;3.60;;;1.40;;
76826;SDS011;65788;52.284;20.890;2023-08-07T12:06:34;2.90;;;1.20;;
76826;SDS011;65788;52.284;20.890;2023-08-07T12:09:02;4.10;;;1.30;;
76826;SDS011;65788;52.284;20.890;2023-08-07T12:11:29;1.70;;;0.90;;
76826;SDS011;65788;52.284;20.890;2023-08-07T12:13:59;3.80;;;1.10;;
76826;SDS011;65788;52.284;20.890;2023-08-07T12:16:31;2.80;;;1.30;;
76826;SDS011;65788;52.284;20.890;2023-08-07T12:18:59;3.70;;;1.50;;
76826;SDS011;65788;52.284;20.890;2023-08-07T12:21:26;4.60;;;1.70;;
76826;SDS011;65788;52.284;20.890;2023-08-07T12:23:54;3.30;;;1.60;;
76826;SDS011;65788;52.284;20.890;2023-08-07T12:26:22;4.40;;;1.40;;
76826;SDS011;65788;52.284;20.890;2023-08-07T12:28:50;1.80;;;0.90;;
76826;SDS011;65788;52.284;20.890;2023-08-07T12:31:18;4.30;;;1.20;;
76826;SDS011;65788;52.284;20.890;2023-08-07T12:33:45;2.30;;;1.10;;
76826;SDS011;65788;52.284;20.890;2023-08-07T12:36:11;2.70;;;1.20;;
76826;SDS011;65788;52.284;20.890;2023-08-07T12:38:40;2.30;;;1.20;;
76826;SDS011;65788;52.284;20.890;2023-08-07T12:41:09;2.30;;;1.10;;
76826;SDS011;65788;52.284;20.890;2023-08-07T12:43:36;2.90;;;1.40;;
76826;SDS011;65788;52.284;20.890;2023-08-07T12:46:03;2.10;;;1.20;;
76826;SDS011;65788;52.284;20.890;2023-08-07T12:48:30;3.30;;;1.10;;
76826;SDS011;65788;52.284;20.890;2023-08-07T12:50:56;2.40;;;1.40;;
76826;SDS011;65788;52.284;20.890;2023-08-07T12:53:23;2.80;;;1.60;;
76826;SDS011;65788;52.284;20.890;2023-08-07T12:55:50;2.30;;;1.20;;
76826;SDS011;65788;52.284;20.890;2023-08-07T12:58:17;3.50;;;1.50;;
76826;SDS011;65788;52.284;20.890;2023-08-07T13:00:47;4.00;;;1.50;;
76826;SDS011;65788;52.284;20.890;2023-08-07T13:03:14;2.30;;;1.40;;
76826;SDS011;65788;52.284;20.890;2023-08-07T13:05:42;2.60;;;1.40;;
76826;SDS011;65788;52.284;20.890;2023-08-07T13:08:10;3.00;;;1.30;;
76826;SDS011;65788;52.284;20.890;2023-08-07T13:10:36;4.40;;;1.40;;
76826;SDS011;65788;52.284;20.890;2023-08-07T13:13:03;2.40;;;1.30;;
76826;SDS011;65788;52.284;20.890;2023-08-07T13:15:31;3.00;;;1.50;;
76826;SDS011;65788;52.284;20.890;2023-08-07T13:17:58;3.10;;;1.50;;
76826;SDS011;65788;52.284;20.890;2023-08-07T13:20:27;3.20;;;1.20;;
76826;SDS011;65788;52.284;20.890;2023-08-07T13:22:54;2.30;;;1.40;;
76826;SDS011;65788;52.284;20.890;2023-08-07T13:25:20;2.40;;;1.30;;
76826;SDS011;65788;52.284;20.890;2023-08-07T13:27:47;2.50;;;1.20;;
76826;SDS011;65788;52.284;20.890;2023-08-07T13:30:14;2.40;;;1.30;;
76826;SDS011;65788;52.284;20.890;2023-08-07T13:32:40;2.40;;;1.20;;
76826;SDS011;65788;52.284;20.890;2023-08-07T13:35:09;2.30;;;1.10;;
76826;SDS011;65788;52.284;20.890;2023-08-07T13:37:36;2.60;;;1.50;;
76826;SDS011;65788;52.284;20.890;2023-08-07T13:40:05;4.70;;;1.60;;
76826;SDS011;65788;52.284;20.890;2023-08-07T13:42:33;2.80;;;1.30;;
76826;SDS011;65788;52.284;20.890;2023-08-07T13:45:00;1.90;;;1.20;;
76826;SDS011;65788;52.284;20.890;2023-08-07T13:47:26;2.40;;;1.20;;
76826;SDS011;65788;52.284;20.890;2023-08-07T13:49:53;3.00;;;1.50;;
76826;SDS011;65788;52.284;20.890;2023-08-07T13:52:21;2.60;;;1.60;;
76826;SDS011;65788;52.284;20.890;2023-08-07T13:54:48;2.30;;;1.40;;
76826;SDS011;65788;52.284;20.890;2023-08-07T13:57:14;3.30;;;1.60;;
76826;SDS011;65788;52.284;20.890;2023-08-07T13:59:42;3.50;;;1.50;;
76826;SDS011;65788;52.284;20.890;2023-08-07T14:02:09;2.90;;;1.60;;
76826;SDS011;65788;52.284;20.890;2023-08-07T14:04:35;2.80;;;1.40;;
76826;SDS011;65788;52.284;20.890;2023-08-07T14:07:02;2.00;;;1.40;;
76826;SDS011;65788;52.284;20.890;2023-08-07T14:09:30;2.50;;;1.60;;
76826;SDS011;65788;52.284;20.890;2023-08-07T14:11:57;3.60;;;1.40;;
76826;SDS011;65788;52.284;20.890;2023-08-07T14:14:23;3.20;;;1.60;;
76826;SDS011;65788;52.284;20.890;2023-08-07T14:16:50;3.60;;;1.80;;
76826;SDS011;65788;52.284;20.890;2023-08-07T14:19:17;2.60;;;1.60;;
76826;SDS011;65788;52.284;20.890;2023-08-07T14:21:44;3.40;;;1.50;;
76826;SDS011;65788;52.284;20.890;2023-08-07T14:24:10;2.70;;;1.60;;
76826;SDS011;65788;52.284;20.890;2023-08-07T14:26:37;2.90;;;1.70;;
76826;SDS011;65788;52.284;20.890;2023-08-07T14:29:03;4.20;;;1.90;;
76826;SDS011;65788;52.284;20.890;2023-08-07T14:31:30;4.20;;;2.00;;
76826;SDS011;65788;52.284;20.890;2023-08-07T14:33:57;3.00;;;1.30;;
76826;SDS011;65788;52.284;20.890;2023-08-07T14:36:23;2.70;;;1.70;;
76826;SDS011;65788;52.284;20.890;2023-08-07T14:38:50;3.80;;;1.90;;
76826;SDS011;65788;52.284;20.890;2023-08-07T14:41:17;5.80;;;2.00;;
76826;SDS011;65788;52.284;20.890;2023-08-07T14:43:47;7.10;;;1.90;;
76826;SDS011;65788;52.284;20.890;2023-08-07T14:46:15;4.30;;;1.80;;
76826;SDS011;65788;52.284;20.890;2023-08-07T14:48:43;3.50;;;1.80;;
76826;SDS011;65788;52.284;20.890;2023-08-07T14:51:10;3.10;;;1.50;;
76826;SDS011;65788;52.284;20.890;2023-08-07T14:53:37;3.30;;;1.40;;
76826;SDS011;65788;52.284;20.890;2023-08-07T14:56:03;6.70;;;1.60;;
76826;SDS011;65788;52.284;20.890;2023-08-07T14:58:30;2.80;;;1.40;;
76826;SDS011;65788;52.284;20.890;2023-08-07T15:00:58;3.40;;;1.60;;
76826;SDS011;65788;52.284;20.890;2023-08-07T15:03:25;2.90;;;1.50;;